aviador You're here:

LFRH Decoded Metar

LORIENT in FRANCE
Report Time2017-08-22 11:00:00
UTC Time2017-08-22 11:15:18
Flight Rules vfr VFR
Wind100° at 10 kt
W.Decomp.*RWY 07: 8.5 kt HW 5.3 kt RCW
RWY 02: 1.4 kt HW 9.9 kt RCW
W.Rank100° ranks 27
Current wind is above 100° avg. (6.9)
Visibility9999 m
Phenomena:N/A
Clouds:N/A
Expected CloudBase > 5,200 ft AGL from Temp-Dew spread
CeilingNone
Temp29°C (ISA +14)
Dew Point16°C (45% RH)
Heat Index29.1°C
AAT27.3°C
QNH1014 hPa
Density Alt1,995 ft
Elevation144 ft
Report Wrong Elevation
Raw Report
LFRH 221100Z AUTO 10010KT 070V130 CAVOK 29/16 Q1014 NOSIG=

Extra information for LFRH:More info

Metar Taf Metar & Taf Last 4 Metars F.Rules Stats Wind Profile Meteogram Temp Stats Airport Information Weather charts Add Link Nearby VenuesMetar ALERT Operation Metar Decoded Social comments